sensor_id;sensor_type;location;lat;lon;timestamp;temperature;humidity
39525;DHT22;25203;50.754;6.978;2023-07-08T00:00:16;17.00;99.90
39525;DHT22;25203;50.754;6.978;2023-07-08T00:02:17;17.10;99.90
39525;DHT22;25203;50.754;6.978;2023-07-08T00:04:18;17.10;99.90
39525;DHT22;25203;50.754;6.978;2023-07-08T00:06:22;17.10;99.90
39525;DHT22;25203;50.754;6.978;2023-07-08T00:08:22;17.10;99.90
39525;DHT22;25203;50.754;6.978;2023-07-08T00:10:27;17.10;99.90
39525;DHT22;25203;50.754;6.978;2023-07-08T00:12:28;17.00;99.90
39525;DHT22;25203;50.754;6.978;2023-07-08T00:14:29;17.00;99.90
39525;DHT22;25203;50.754;6.978;2023-07-08T00:16:29;17.00;99.90
39525;DHT22;25203;50.754;6.978;2023-07-08T00:18:30;16.80;99.90
39525;DHT22;25203;50.754;6.978;2023-07-08T00:22:34;16.70;99.90
39525;DHT22;25203;50.754;6.978;2023-07-08T00:24:36;16.60;99.90
39525;DHT22;25203;50.754;6.978;2023-07-08T00:26:37;16.50;99.90
39525;DHT22;25203;50.754;6.978;2023-07-08T00:28:38;16.50;99.90
39525;DHT22;25203;50.754;6.978;2023-07-08T00:30:38;16.40;99.90
39525;DHT22;25203;50.754;6.978;2023-07-08T00:32:39;16.40;99.90
39525;DHT22;25203;50.754;6.978;2023-07-08T00:34:42;16.40;99.90
39525;DHT22;25203;50.754;6.978;2023-07-08T00:36:42;16.40;99.90
39525;DHT22;25203;50.754;6.978;2023-07-08T00:38:43;16.30;99.90
39525;DHT22;25203;50.754;6.978;2023-07-08T00:41:04;16.30;99.90
39525;DHT22;25203;50.754;6.978;2023-07-08T00:43:08;16.20;99.90
39525;DHT22;25203;50.754;6.978;2023-07-08T00:45:16;16.20;99.90
39525;DHT22;25203;50.754;6.978;2023-07-08T00:47:18;16.10;99.90
39525;DHT22;25203;50.754;6.978;2023-07-08T00:49:25;16.20;99.90
39525;DHT22;25203;50.754;6.978;2023-07-08T00:51:27;16.40;99.90
39525;DHT22;25203;50.754;6.978;2023-07-08T00:53:31;16.50;99.90
39525;DHT22;25203;50.754;6.978;2023-07-08T00:55:32;16.70;99.90
39525;DHT22;25203;50.754;6.978;2023-07-08T00:57:37;16.80;99.90
39525;DHT22;25203;50.754;6.978;2023-07-08T00:59:43;16.80;99.90
39525;DHT22;25203;50.754;6.978;2023-07-08T01:01:46;16.90;99.90
39525;DHT22;25203;50.754;6.978;2023-07-08T01:03:55;16.90;99.90
39525;DHT22;25203;50.754;6.978;2023-07-08T01:05:56;16.90;99.90
39525;DHT22;25203;50.754;6.978;2023-07-08T01:08:02;16.70;99.90
39525;DHT22;25203;50.754;6.978;2023-07-08T01:10:06;16.70;99.90
39525;DHT22;25203;50.754;6.978;2023-07-08T01:12:14;16.50;99.90
39525;DHT22;25203;50.754;6.978;2023-07-08T01:14:18;16.40;99.90
39525;DHT22;25203;50.754;6.978;2023-07-08T01:16:20;16.20;99.90
39525;DHT22;25203;50.754;6.978;2023-07-08T01:18:21;16.10;99.90
39525;DHT22;25203;50.754;6.978;2023-07-08T01:20:22;16.00;99.90
39525;DHT22;25203;50.754;6.978;2023-07-08T01:22:22;15.90;99.90
39525;DHT22;25203;50.754;6.978;2023-07-08T01:24:23;15.90;99.90
39525;DHT22;25203;50.754;6.978;2023-07-08T01:26:25;15.80;99.90
39525;DHT22;25203;50.754;6.978;2023-07-08T01:28:27;15.80;99.90
39525;DHT22;25203;50.754;6.978;2023-07-08T01:30:29;15.70;99.90
39525;DHT22;25203;50.754;6.978;2023-07-08T01:32:29;15.60;99.90
39525;DHT22;25203;50.754;6.978;2023-07-08T01:34:33;15.50;99.90
39525;DHT22;25203;50.754;6.978;2023-07-08T01:36:39;15.30;99.90
39525;DHT22;25203;50.754;6.978;2023-07-08T01:38:40;15.30;99.90
39525;DHT22;25203;50.754;6.978;2023-07-08T01:40:52;15.20;99.90
39525;DHT22;25203;50.754;6.978;2023-07-08T01:42:53;15.20;99.90
39525;DHT22;25203;50.754;6.978;2023-07-08T01:44:54;15.20;99.90
39525;DHT22;25203;50.754;6.978;2023-07-08T01:46:57;15.20;99.90
39525;DHT22;25203;50.754;6.978;2023-07-08T01:49:00;15.20;99.90
39525;DHT22;25203;50.754;6.978;2023-07-08T01:51:04;15.20;99.90
39525;DHT22;25203;50.754;6.978;2023-07-08T01:53:10;15.20;99.90
39525;DHT22;25203;50.754;6.978;2023-07-08T01:55:12;15.10;99.90
39525;DHT22;25203;50.754;6.978;2023-07-08T01:57:12;14.90;99.90
39525;DHT22;25203;50.754;6.978;2023-07-08T01:59:13;14.90;99.90
39525;DHT22;25203;50.754;6.978;2023-07-08T02:01:14;14.80;99.90
39525;DHT22;25203;50.754;6.978;2023-07-08T02:03:15;14.70;99.90
39525;DHT22;25203;50.754;6.978;2023-07-08T02:05:16;14.60;99.90
39525;DHT22;25203;50.754;6.978;2023-07-08T02:07:17;14.60;99.90
39525;DHT22;25203;50.754;6.978;2023-07-08T02:09:17;14.60;99.90
39525;DHT22;25203;50.754;6.978;2023-07-08T02:11:18;14.50;99.90
39525;DHT22;25203;50.754;6.978;2023-07-08T02:13:19;14.40;99.90
39525;DHT22;25203;50.754;6.978;2023-07-08T02:15:20;14.40;99.90
39525;DHT22;25203;50.754;6.978;2023-07-08T02:17:21;14.30;99.90
39525;DHT22;25203;50.754;6.978;2023-07-08T02:19:21;14.20;99.90
39525;DHT22;25203;50.754;6.978;2023-07-08T02:21:22;14.20;99.90
39525;DHT22;25203;50.754;6.978;2023-07-08T02:23:23;14.10;99.90
39525;DHT22;25203;50.754;6.978;2023-07-08T02:25:23;14.10;99.90
39525;DHT22;25203;50.754;6.978;2023-07-08T02:27:24;14.10;99.90
39525;DHT22;25203;50.754;6.978;2023-07-08T02:29:25;14.10;99.90
39525;DHT22;25203;50.754;6.978;2023-07-08T02:31:26;14.10;99.90
39525;DHT22;25203;50.754;6.978;2023-07-08T02:33:27;14.10;99.90
39525;DHT22;25203;50.754;6.978;2023-07-08T02:35:33;14.10;99.90
39525;DHT22;25203;50.754;6.978;2023-07-08T02:37:33;14.10;99.90
39525;DHT22;25203;50.754;6.978;2023-07-08T02:39:34;14.20;99.90
39525;DHT22;25203;50.754;6.978;2023-07-08T02:41:35;14.10;99.90
39525;DHT22;25203;50.754;6.978;2023-07-08T02:43:35;14.10;99.90
39525;DHT22;25203;50.754;6.978;2023-07-08T02:45:36;14.10;99.90
39525;DHT22;25203;50.754;6.978;2023-07-08T02:47:36;14.10;99.90
39525;DHT22;25203;50.754;6.978;2023-07-08T02:49:37;14.10;99.90
39525;DHT22;25203;50.754;6.978;2023-07-08T02:51:38;14.10;99.90
39525;DHT22;25203;50.754;6.978;2023-07-08T02:53:38;14.10;99.90
39525;DHT22;25203;50.754;6.978;2023-07-08T02:55:40;14.00;99.90
39525;DHT22;25203;50.754;6.978;2023-07-08T02:57:42;14.00;99.90
39525;DHT22;25203;50.754;6.978;2023-07-08T02:59:43;14.00;99.90
39525;DHT22;25203;50.754;6.978;2023-07-08T03:01:43;13.90;99.90
39525;DHT22;25203;50.754;6.978;2023-07-08T03:03:47;13.90;99.90
39525;DHT22;25203;50.754;6.978;2023-07-08T03:05:58;13.90;99.90
39525;DHT22;25203;50.754;6.978;2023-07-08T03:07:59;13.90;99.90
39525;DHT22;25203;50.754;6.978;2023-07-08T03:10:00;13.90;99.90
39525;DHT22;25203;50.754;6.978;2023-07-08T03:12:01;13.90;99.90
39525;DHT22;25203;50.754;6.978;2023-07-08T03:14:01;13.90;99.90
39525;DHT22;25203;50.754;6.978;2023-07-08T03:16:02;13.90;99.90
39525;DHT22;25203;50.754;6.978;2023-07-08T03:18:09;14.00;99.90
39525;DHT22;25203;50.754;6.978;2023-07-08T03:20:10;14.00;99.90
39525;DHT22;25203;50.754;6.978;2023-07-08T03:22:11;14.00;99.90
39525;DHT22;25203;50.754;6.978;2023-07-08T03:24:12;14.00;99.90
39525;DHT22;25203;50.754;6.978;2023-07-08T03:26:19;14.10;99.90
39525;DHT22;25203;50.754;6.978;2023-07-08T03:28:20;14.20;99.90
39525;DHT22;25203;50.754;6.978;2023-07-08T03:30:21;14.40;99.90
39525;DHT22;25203;50.754;6.978;2023-07-08T03:32:22;14.60;99.90
39525;DHT22;25203;50.754;6.978;2023-07-08T03:34:22;14.80;99.90
39525;DHT22;25203;50.754;6.978;2023-07-08T03:36:23;14.90;99.90
39525;DHT22;25203;50.754;6.978;2023-07-08T03:38:24;14.90;99.90
39525;DHT22;25203;50.754;6.978;2023-07-08T03:40:24;14.90;99.90
39525;DHT22;25203;50.754;6.978;2023-07-08T03:42:25;14.90;99.90
39525;DHT22;25203;50.754;6.978;2023-07-08T03:44:26;14.90;99.90
39525;DHT22;25203;50.754;6.978;2023-07-08T03:46:26;14.90;99.90
39525;DHT22;25203;50.754;6.978;2023-07-08T03:48:27;14.90;99.90
39525;DHT22;25203;50.754;6.978;2023-07-08T03:50:28;14.90;99.90
39525;DHT22;25203;50.754;6.978;2023-07-08T03:52:28;14.90;99.90
39525;DHT22;25203;50.754;6.978;2023-07-08T03:54:29;14.90;99.90
39525;DHT22;25203;50.754;6.978;2023-07-08T03:56:30;14.90;99.90
39525;DHT22;25203;50.754;6.978;2023-07-08T03:58:30;14.90;99.90
39525;DHT22;25203;50.754;6.978;2023-07-08T04:00:31;15.00;99.90
39525;DHT22;25203;50.754;6.978;2023-07-08T04:02:31;15.20;99.90
39525;DHT22;25203;50.754;6.978;2023-07-08T04:04:32;15.30;99.90
39525;DHT22;25203;50.754;6.978;2023-07-08T04:06:33;15.40;99.90
39525;DHT22;25203;50.754;6.978;2023-07-08T04:08:34;15.50;99.90
39525;DHT22;25203;50.754;6.978;2023-07-08T04:10:35;15.50;99.90
39525;DHT22;25203;50.754;6.978;2023-07-08T04:12:36;15.40;99.90
39525;DHT22;25203;50.754;6.978;2023-07-08T04:14:36;15.40;99.90
39525;DHT22;25203;50.754;6.978;2023-07-08T04:16:57;15.40;99.90
39525;DHT22;25203;50.754;6.978;2023-07-08T04:18:58;15.40;99.90
39525;DHT22;25203;50.754;6.978;2023-07-08T04:20:59;15.40;99.90
39525;DHT22;25203;50.754;6.978;2023-07-08T04:22:59;15.50;99.90
39525;DHT22;25203;50.754;6.978;2023-07-08T04:25:00;15.60;99.90
39525;DHT22;25203;50.754;6.978;2023-07-08T04:27:00;15.70;99.90
39525;DHT22;25203;50.754;6.978;2023-07-08T04:29:02;15.90;99.90
39525;DHT22;25203;50.754;6.978;2023-07-08T04:31:02;15.90;99.90
39525;DHT22;25203;50.754;6.978;2023-07-08T04:33:04;16.00;99.90
39525;DHT22;25203;50.754;6.978;2023-07-08T04:35:04;16.10;99.90
39525;DHT22;25203;50.754;6.978;2023-07-08T04:37:05;16.20;99.90
39525;DHT22;25203;50.754;6.978;2023-07-08T04:39:07;16.40;99.90
39525;DHT22;25203;50.754;6.978;2023-07-08T04:41:08;16.40;99.90
39525;DHT22;25203;50.754;6.978;2023-07-08T04:43:09;16.60;99.90
39525;DHT22;25203;50.754;6.978;2023-07-08T04:45:13;16.60;99.90
39525;DHT22;25203;50.754;6.978;2023-07-08T04:47:14;16.60;99.90
39525;DHT22;25203;50.754;6.978;2023-07-08T04:49:15;16.70;99.90
39525;DHT22;25203;50.754;6.978;2023-07-08T04:51:15;16.70;99.90
39525;DHT22;25203;50.754;6.978;2023-07-08T04:53:16;16.70;99.90
39525;DHT22;25203;50.754;6.978;2023-07-08T04:55:19;16.80;99.90
39525;DHT22;25203;50.754;6.978;2023-07-08T04:57:19;17.00;99.90
39525;DHT22;25203;50.754;6.978;2023-07-08T04:59:23;17.20;99.90
39525;DHT22;25203;50.754;6.978;2023-07-08T05:01:24;17.40;99.90
39525;DHT22;25203;50.754;6.978;2023-07-08T05:03:26;17.60;99.90
39525;DHT22;25203;50.754;6.978;2023-07-08T05:05:27;17.70;99.90
39525;DHT22;25203;50.754;6.978;2023-07-08T05:07:27;17.90;99.90
39525;DHT22;25203;50.754;6.978;2023-07-08T05:09:28;18.00;99.90
39525;DHT22;25203;50.754;6.978;2023-07-08T05:11:30;18.20;99.90
39525;DHT22;25203;50.754;6.978;2023-07-08T05:13:31;18.40;99.90
39525;DHT22;25203;50.754;6.978;2023-07-08T05:15:31;18.60;99.90
39525;DHT22;25203;50.754;6.978;2023-07-08T05:17:32;18.80;99.90
39525;DHT22;25203;50.754;6.978;2023-07-08T05:19:32;19.00;99.90
39525;DHT22;25203;50.754;6.978;2023-07-08T05:21:33;19.10;99.90
39525;DHT22;25203;50.754;6.978;2023-07-08T05:23:35;19.20;99.90
39525;DHT22;25203;50.754;6.978;2023-07-08T05:25:35;19.30;99.90
39525;DHT22;25203;50.754;6.978;2023-07-08T05:27:36;19.40;99.90
39525;DHT22;25203;50.754;6.978;2023-07-08T05:29:36;19.50;99.90
39525;DHT22;25203;50.754;6.978;2023-07-08T05:31:37;19.70;99.90
39525;DHT22;25203;50.754;6.978;2023-07-08T05:33:38;19.80;99.90
39525;DHT22;25203;50.754;6.978;2023-07-08T05:35:38;19.90;99.90
39525;DHT22;25203;50.754;6.978;2023-07-08T05:37:39;20.10;99.90
39525;DHT22;25203;50.754;6.978;2023-07-08T05:39:40;20.20;99.90
39525;DHT22;25203;50.754;6.978;2023-07-08T05:41:41;20.20;99.90
39525;DHT22;25203;50.754;6.978;2023-07-08T05:43:41;20.30;99.90
39525;DHT22;25203;50.754;6.978;2023-07-08T05:45:42;20.30;99.30
39525;DHT22;25203;50.754;6.978;2023-07-08T05:47:42;20.40;98.40
39525;DHT22;25203;50.754;6.978;2023-07-08T05:49:43;20.40;98.60
39525;DHT22;25203;50.754;6.978;2023-07-08T05:51:44;20.50;98.80
39525;DHT22;25203;50.754;6.978;2023-07-08T05:53:45;20.50;99.10
39525;DHT22;25203;50.754;6.978;2023-07-08T05:55:45;20.50;99.50
39525;DHT22;25203;50.754;6.978;2023-07-08T05:57:46;20.50;99.20
39525;DHT22;25203;50.754;6.978;2023-07-08T05:59:47;20.40;99.10
39525;DHT22;25203;50.754;6.978;2023-07-08T06:01:47;20.40;98.50
39525;DHT22;25203;50.754;6.978;2023-07-08T06:03:48;20.30;98.80
39525;DHT22;25203;50.754;6.978;2023-07-08T06:05:48;20.40;98.90
39525;DHT22;25203;50.754;6.978;2023-07-08T06:07:49;20.40;98.90
39525;DHT22;25203;50.754;6.978;2023-07-08T06:09:50;20.50;98.80
39525;DHT22;25203;50.754;6.978;2023-07-08T06:11:51;20.70;98.60
39525;DHT22;25203;50.754;6.978;2023-07-08T06:13:52;20.80;98.60
39525;DHT22;25203;50.754;6.978;2023-07-08T06:15:52;21.00;98.50
39525;DHT22;25203;50.754;6.978;2023-07-08T06:17:53;21.20;97.80
39525;DHT22;25203;50.754;6.978;2023-07-08T06:19:53;21.40;96.40
39525;DHT22;25203;50.754;6.978;2023-07-08T06:21:54;21.50;96.80
39525;DHT22;25203;50.754;6.978;2023-07-08T06:23:55;21.80;96.60
39525;DHT22;25203;50.754;6.978;2023-07-08T06:25:56;21.90;96.70
39525;DHT22;25203;50.754;6.978;2023-07-08T06:27:56;22.20;95.40
39525;DHT22;25203;50.754;6.978;2023-07-08T06:29:57;22.40;94.70
39525;DHT22;25203;50.754;6.978;2023-07-08T06:31:58;22.50;94.80
39525;DHT22;25203;50.754;6.978;2023-07-08T06:33:58;22.70;94.60
39525;DHT22;25203;50.754;6.978;2023-07-08T06:35:59;22.90;93.30
39525;DHT22;25203;50.754;6.978;2023-07-08T06:37:59;23.00;93.20
39525;DHT22;25203;50.754;6.978;2023-07-08T06:40:00;23.30;93.10
39525;DHT22;25203;50.754;6.978;2023-07-08T06:42:01;23.40;92.90
39525;DHT22;25203;50.754;6.978;2023-07-08T06:44:01;23.60;91.60
39525;DHT22;25203;50.754;6.978;2023-07-08T06:46:02;23.70;90.30
39525;DHT22;25203;50.754;6.978;2023-07-08T06:48:02;23.80;90.00
39525;DHT22;25203;50.754;6.978;2023-07-08T06:50:04;24.00;89.10
39525;DHT22;25203;50.754;6.978;2023-07-08T06:52:05;24.30;87.50
39525;DHT22;25203;50.754;6.978;2023-07-08T06:54:06;24.50;88.30
39525;DHT22;25203;50.754;6.978;2023-07-08T06:56:11;24.70;86.00
39525;DHT22;25203;50.754;6.978;2023-07-08T06:58:12;24.80;86.30
39525;DHT22;25203;50.754;6.978;2023-07-08T07:00:13;24.90;84.00
39525;DHT22;25203;50.754;6.978;2023-07-08T07:02:14;25.10;81.10
39525;DHT22;25203;50.754;6.978;2023-07-08T07:04:14;25.20;79.20
39525;DHT22;25203;50.754;6.978;2023-07-08T07:06:15;25.40;78.90
39525;DHT22;25203;50.754;6.978;2023-07-08T07:08:16;25.30;77.20
39525;DHT22;25203;50.754;6.978;2023-07-08T07:10:16;25.30;79.60
39525;DHT22;25203;50.754;6.978;2023-07-08T07:12:17;25.20;76.80
39525;DHT22;25203;50.754;6.978;2023-07-08T07:14:18;25.30;77.20
39525;DHT22;25203;50.754;6.978;2023-07-08T07:16:18;25.50;76.70
39525;DHT22;25203;50.754;6.978;2023-07-08T07:18:21;25.50;76.10
39525;DHT22;25203;50.754;6.978;2023-07-08T07:20:22;25.70;76.60
39525;DHT22;25203;50.754;6.978;2023-07-08T07:22:22;25.80;76.40
39525;DHT22;25203;50.754;6.978;2023-07-08T07:24:23;26.10;77.30
39525;DHT22;25203;50.754;6.978;2023-07-08T07:26:24;26.40;77.60
39525;DHT22;25203;50.754;6.978;2023-07-08T07:28:24;26.60;75.00
39525;DHT22;25203;50.754;6.978;2023-07-08T07:30:25;26.50;72.60
39525;DHT22;25203;50.754;6.978;2023-07-08T07:32:26;26.50;70.70
39525;DHT22;25203;50.754;6.978;2023-07-08T07:34:27;26.40;72.20
39525;DHT22;25203;50.754;6.978;2023-07-08T07:36:28;26.60;72.70
39525;DHT22;25203;50.754;6.978;2023-07-08T07:38:32;26.90;71.30
39525;DHT22;25203;50.754;6.978;2023-07-08T07:40:33;26.80;69.80
39525;DHT22;25203;50.754;6.978;2023-07-08T07:42:33;26.80;68.80
39525;DHT22;25203;50.754;6.978;2023-07-08T07:44:34;26.90;68.90
39525;DHT22;25203;50.754;6.978;2023-07-08T07:46:35;26.90;68.20
39525;DHT22;25203;50.754;6.978;2023-07-08T07:48:35;26.80;66.70
39525;DHT22;25203;50.754;6.978;2023-07-08T07:50:36;26.70;66.70
39525;DHT22;25203;50.754;6.978;2023-07-08T07:52:37;26.80;68.70
39525;DHT22;25203;50.754;6.978;2023-07-08T07:54:38;26.80;67.80
39525;DHT22;25203;50.754;6.978;2023-07-08T07:56:39;26.90;68.40
39525;DHT22;25203;50.754;6.978;2023-07-08T07:58:39;27.00;67.30
39525;DHT22;25203;50.754;6.978;2023-07-08T08:00:40;27.10;67.80
39525;DHT22;25203;50.754;6.978;2023-07-08T08:02:41;27.00;68.00
39525;DHT22;25203;50.754;6.978;2023-07-08T08:04:42;27.20;67.20
39525;DHT22;25203;50.754;6.978;2023-07-08T08:06:42;27.30;66.30
39525;DHT22;25203;50.754;6.978;2023-07-08T08:08:43;27.40;66.20
39525;DHT22;25203;50.754;6.978;2023-07-08T08:10:44;27.50;66.00
39525;DHT22;25203;50.754;6.978;2023-07-08T08:12:44;27.60;66.30
39525;DHT22;25203;50.754;6.978;2023-07-08T08:14:46;27.90;67.00
39525;DHT22;25203;50.754;6.978;2023-07-08T08:16:47;28.00;65.00
39525;DHT22;25203;50.754;6.978;2023-07-08T08:18:47;28.30;66.00
39525;DHT22;25203;50.754;6.978;2023-07-08T08:20:50;28.70;63.80
39525;DHT22;25203;50.754;6.978;2023-07-08T08:22:52;28.70;63.50
39525;DHT22;25203;50.754;6.978;2023-07-08T08:24:53;29.30;64.20
39525;DHT22;25203;50.754;6.978;2023-07-08T08:26:54;29.90;62.70
39525;DHT22;25203;50.754;6.978;2023-07-08T08:28:55;30.60;60.80
39525;DHT22;25203;50.754;6.978;2023-07-08T08:30:56;31.80;60.00
39525;DHT22;25203;50.754;6.978;2023-07-08T08:32:57;32.90;58.30
39525;DHT22;25203;50.754;6.978;2023-07-08T08:34:57;34.00;57.40
39525;DHT22;25203;50.754;6.978;2023-07-08T08:36:58;34.60;56.80
39525;DHT22;25203;50.754;6.978;2023-07-08T08:38:58;35.70;54.60
39525;DHT22;25203;50.754;6.978;2023-07-08T08:41:04;36.30;54.80
39525;DHT22;25203;50.754;6.978;2023-07-08T08:43:35;36.80;53.30
39525;DHT22;25203;50.754;6.978;2023-07-08T08:45:47;37.20;54.10
39525;DHT22;25203;50.754;6.978;2023-07-08T08:47:57;36.70;52.50
39525;DHT22;25203;50.754;6.978;2023-07-08T08:52:24;35.30;52.70
39525;DHT22;25203;50.754;6.978;2023-07-08T08:54:25;34.90;52.80
39525;DHT22;25203;50.754;6.978;2023-07-08T08:56:39;35.20;53.80
39525;DHT22;25203;50.754;6.978;2023-07-08T08:58:47;35.30;52.40
39525;DHT22;25203;50.754;6.978;2023-07-08T09:03:09;34.70;52.80
39525;DHT22;25203;50.754;6.978;2023-07-08T09:05:13;34.50;53.00
39525;DHT22;25203;50.754;6.978;2023-07-08T09:07:17;34.70;52.80
39525;DHT22;25203;50.754;6.978;2023-07-08T09:09:31;35.00;53.50
39525;DHT22;25203;50.754;6.978;2023-07-08T09:11:55;35.40;53.10
39525;DHT22;25203;50.754;6.978;2023-07-08T09:13:57;35.20;52.60
39525;DHT22;25203;50.754;6.978;2023-07-08T09:19:35;35.20;52.30
39525;DHT22;25203;50.754;6.978;2023-07-08T09:21:19;34.70;53.50
39525;DHT22;25203;50.754;6.978;2023-07-08T09:23:27;35.40;52.70
39525;DHT22;25203;50.754;6.978;2023-07-08T09:27:49;36.20;52.60
39525;DHT22;25203;50.754;6.978;2023-07-08T09:29:49;36.80;51.60
39525;DHT22;25203;50.754;6.978;2023-07-08T09:31:50;37.70;51.60
39525;DHT22;25203;50.754;6.978;2023-07-08T09:33:52;38.00;50.90
39525;DHT22;25203;50.754;6.978;2023-07-08T09:35:53;37.10;51.50
39525;DHT22;25203;50.754;6.978;2023-07-08T09:37:54;37.20;51.70
39525;DHT22;25203;50.754;6.978;2023-07-08T09:39:56;37.00;51.70
39525;DHT22;25203;50.754;6.978;2023-07-08T09:42:06;37.10;51.30
39525;DHT22;25203;50.754;6.978;2023-07-08T09:44:26;38.20;51.60
39525;DHT22;25203;50.754;6.978;2023-07-08T09:46:28;38.40;50.70
39525;DHT22;25203;50.754;6.978;2023-07-08T09:48:33;39.10;50.50
39525;DHT22;25203;50.754;6.978;2023-07-08T09:50:36;39.30;50.10
39525;DHT22;25203;50.754;6.978;2023-07-08T09:52:36;38.70;50.20
39525;DHT22;25203;50.754;6.978;2023-07-08T09:54:37;38.20;50.20
39525;DHT22;25203;50.754;6.978;2023-07-08T09:56:43;38.50;50.90
39525;DHT22;25203;50.754;6.978;2023-07-08T09:58:44;38.70;49.80
39525;DHT22;25203;50.754;6.978;2023-07-08T10:00:55;38.60;50.20
39525;DHT22;25203;50.754;6.978;2023-07-08T10:02:58;38.80;50.40
39525;DHT22;25203;50.754;6.978;2023-07-08T10:05:12;39.10;50.20
39525;DHT22;25203;50.754;6.978;2023-07-08T10:07:16;38.80;49.00
39525;DHT22;25203;50.754;6.978;2023-07-08T10:09:20;38.40;49.70
39525;DHT22;25203;50.754;6.978;2023-07-08T10:15:42;37.30;49.80
39525;DHT22;25203;50.754;6.978;2023-07-08T10:17:43;37.40;50.50
39525;DHT22;25203;50.754;6.978;2023-07-08T10:19:44;38.40;50.90
39525;DHT22;25203;50.754;6.978;2023-07-08T10:26:26;40.40;49.70
39525;DHT22;25203;50.754;6.978;2023-07-08T10:28:34;41.50;48.10
39525;DHT22;25203;50.754;6.978;2023-07-08T10:30:53;42.30;48.10
39525;DHT22;25203;50.754;6.978;2023-07-08T10:33:19;43.10;47.70
39525;DHT22;25203;50.754;6.978;2023-07-08T10:37:55;42.10;47.00
39525;DHT22;25203;50.754;6.978;2023-07-08T10:40:51;40.80;48.50
39525;DHT22;25203;50.754;6.978;2023-07-08T10:45:13;37.60;50.40
39525;DHT22;25203;50.754;6.978;2023-07-08T10:47:29;36.90;50.30
39525;DHT22;25203;50.754;6.978;2023-07-08T10:49:57;36.10;51.10
39525;DHT22;25203;50.754;6.978;2023-07-08T10:56:18;34.60;52.30
39525;DHT22;25203;50.754;6.978;2023-07-08T11:07:53;34.70;53.40
39525;DHT22;25203;50.754;6.978;2023-07-08T11:09:59;34.50;52.80
39525;DHT22;25203;50.754;6.978;2023-07-08T11:12:08;34.50;53.30
39525;DHT22;25203;50.754;6.978;2023-07-08T11:14:16;34.40;52.60
39525;DHT22;25203;50.754;6.978;2023-07-08T11:16:35;34.10;53.50
39525;DHT22;25203;50.754;6.978;2023-07-08T11:18:43;33.80;53.20
39525;DHT22;25203;50.754;6.978;2023-07-08T11:20:56;33.60;53.90
39525;DHT22;25203;50.754;6.978;2023-07-08T11:25:20;33.00;53.90
39525;DHT22;25203;50.754;6.978;2023-07-08T11:27:32;33.00;53.70
39525;DHT22;25203;50.754;6.978;2023-07-08T11:29:39;33.00;53.50
39525;DHT22;25203;50.754;6.978;2023-07-08T11:31:40;32.90;53.40
39525;DHT22;25203;50.754;6.978;2023-07-08T11:33:41;33.30;53.80
39525;DHT22;25203;50.754;6.978;2023-07-08T11:35:44;33.50;53.60
39525;DHT22;25203;50.754;6.978;2023-07-08T11:37:46;34.00;53.00
39525;DHT22;25203;50.754;6.978;2023-07-08T11:39:55;34.40;54.20
39525;DHT22;25203;50.754;6.978;2023-07-08T11:42:05;35.20;52.80
39525;DHT22;25203;50.754;6.978;2023-07-08T11:44:11;35.60;51.10
39525;DHT22;25203;50.754;6.978;2023-07-08T11:46:18;35.10;51.70
39525;DHT22;25203;50.754;6.978;2023-07-08T11:48:31;35.30;51.60
39525;DHT22;25203;50.754;6.978;2023-07-08T11:50:40;35.80;51.30
39525;DHT22;25203;50.754;6.978;2023-07-08T11:52:58;36.50;51.60
39525;DHT22;25203;50.754;6.978;2023-07-08T11:55:19;37.60;51.60
39525;DHT22;25203;50.754;6.978;2023-07-08T11:57:42;39.10;49.20
39525;DHT22;25203;50.754;6.978;2023-07-08T11:59:43;38.90;48.50
39525;DHT22;25203;50.754;6.978;2023-07-08T12:08:34;37.20;50.10
39525;DHT22;25203;50.754;6.978;2023-07-08T12:10:50;37.40;50.10
39525;DHT22;25203;50.754;6.978;2023-07-08T12:12:51;37.80;49.50
39525;DHT22;25203;50.754;6.978;2023-07-08T12:15:00;37.90;48.70
39525;DHT22;25203;50.754;6.978;2023-07-08T12:17:01;38.00;50.00
39525;DHT22;25203;50.754;6.978;2023-07-08T12:19:04;38.70;50.00
39525;DHT22;25203;50.754;6.978;2023-07-08T12:21:07;39.30;49.00
39525;DHT22;25203;50.754;6.978;2023-07-08T12:23:18;39.20;48.90
39525;DHT22;25203;50.754;6.978;2023-07-08T12:25:22;39.60;49.80
39525;DHT22;25203;50.754;6.978;2023-07-08T12:27:23;39.30;48.90
39525;DHT22;25203;50.754;6.978;2023-07-08T12:29:24;38.80;48.80
39525;DHT22;25203;50.754;6.978;2023-07-08T12:31:25;38.30;49.10
39525;DHT22;25203;50.754;6.978;2023-07-08T12:33:33;38.10;49.70
39525;DHT22;25203;50.754;6.978;2023-07-08T12:35:34;37.70;50.00
39525;DHT22;25203;50.754;6.978;2023-07-08T12:37:35;37.50;50.10
39525;DHT22;25203;50.754;6.978;2023-07-08T12:39:36;37.30;49.50
39525;DHT22;25203;50.754;6.978;2023-07-08T12:41:37;37.30;50.20
39525;DHT22;25203;50.754;6.978;2023-07-08T12:43:38;37.50;49.40
39525;DHT22;25203;50.754;6.978;2023-07-08T12:45:38;37.40;49.80
39525;DHT22;25203;50.754;6.978;2023-07-08T12:47:39;37.10;49.60
39525;DHT22;25203;50.754;6.978;2023-07-08T12:49:40;36.80;50.40
39525;DHT22;25203;50.754;6.978;2023-07-08T12:51:43;36.70;50.40
39525;DHT22;25203;50.754;6.978;2023-07-08T12:53:44;36.30;50.50
39525;DHT22;25203;50.754;6.978;2023-07-08T12:55:45;35.80;50.60
39525;DHT22;25203;50.754;6.978;2023-07-08T12:57:49;35.60;50.50
39525;DHT22;25203;50.754;6.978;2023-07-08T12:59:50;35.50;51.80
39525;DHT22;25203;50.754;6.978;2023-07-08T13:01:52;35.40;51.60
39525;DHT22;25203;50.754;6.978;2023-07-08T13:03:56;35.20;51.20
39525;DHT22;25203;50.754;6.978;2023-07-08T13:06:01;35.30;51.00
39525;DHT22;25203;50.754;6.978;2023-07-08T13:08:02;35.40;51.10
39525;DHT22;25203;50.754;6.978;2023-07-08T13:10:05;35.50;51.20
39525;DHT22;25203;50.754;6.978;2023-07-08T13:12:16;35.60;50.60
39525;DHT22;25203;50.754;6.978;2023-07-08T13:14:19;35.60;51.10
39525;DHT22;25203;50.754;6.978;2023-07-08T13:16:24;35.70;51.10
39525;DHT22;25203;50.754;6.978;2023-07-08T13:18:33;35.90;51.60
39525;DHT22;25203;50.754;6.978;2023-07-08T13:20:35;35.70;50.80
39525;DHT22;25203;50.754;6.978;2023-07-08T13:22:35;35.60;51.00
39525;DHT22;25203;50.754;6.978;2023-07-08T13:24:37;35.80;50.40
39525;DHT22;25203;50.754;6.978;2023-07-08T13:26:39;36.00;50.90
39525;DHT22;25203;50.754;6.978;2023-07-08T13:28:45;36.00;51.80
39525;DHT22;25203;50.754;6.978;2023-07-08T13:30:54;36.10;50.00
39525;DHT22;25203;50.754;6.978;2023-07-08T13:32:57;36.00;50.50
39525;DHT22;25203;50.754;6.978;2023-07-08T13:34:58;35.90;50.00
39525;DHT22;25203;50.754;6.978;2023-07-08T13:36:58;35.90;50.40
39525;DHT22;25203;50.754;6.978;2023-07-08T13:39:02;36.00;50.90
39525;DHT22;25203;50.754;6.978;2023-07-08T13:41:07;36.60;50.40
39525;DHT22;25203;50.754;6.978;2023-07-08T13:43:08;36.80;50.70
39525;DHT22;25203;50.754;6.978;2023-07-08T13:45:15;36.40;50.60